Medicine Lake, Montana
Current Conditions -  °F | °C
As of 6:52 PM on Friday 24 Oct 2014 (Local Time) from KISN Reporting Station
Clear Clear  
Wind Chill: 40°   Ceiling: Unl
Heat Index: 44°   Visibility: 10mi
Dew Point: 27°   Wind: 8mph
Humidity: 51%   Direction: 250°WSW
Pressure: 30"   Gusts: NA
Location:  48.5°N, 104.5°W
Report Text: KISN 250052Z AUTO 25007KT 10SM CLR 07/M03 A3000 RMK AO2 SLP172 T00671028
Loading
Personal Weather Stations






























Interactive Weather Map
Tropical Storm Tracking
New forecast layout! Learn more

10-Day Weather Forecast

Advertisements
Track Severe Weather on mobile